Time;durP1;ratioP1;P1;durP2;ratioP2;P2;SDS_P1;SDS_P2;PMS_P1;PMS_P2;Temp;Humidity;BMP_temperature;BMP_pressure;BME280_temperature;BME280_humidity;BME280_pressure;Samples;Min_cycle;Max_cycle;Signal;HPM_P1;HPM_P2
2023/08/03 00:02:06;;;;;;;0.10;0.10;;;;;;;;;;5130610;28;20055;-47
2023/08/03 00:04:32;;;;;;;0.10;0.10;;;;;;;;;;5129473;27;20095;-47
2023/08/03 00:06:58;;;;;;;0.10;0.10;;;;;;;;;;5132602;28;20053;-47
2023/08/03 00:09:24;;;;;;;0.10;0.10;;;;;;;;;;5133889;28;20514;-48
2023/08/03 00:11:50;;;;;;;0.10;0.10;;;;;;;;;;5133628;28;20058;-47
2023/08/03 00:14:15;;;;;;;0.10;0.10;;;;;;;;;;5134372;28;20126;-45
2023/08/03 00:16:41;;;;;;;0.10;0.10;;;;;;;;;;5133179;28;20047;-47
2023/08/03 00:19:06;;;;;;;0.10;0.10;;;;;;;;;;5133900;28;20185;-47
2023/08/03 00:21:32;;;;;;;0.13;0.13;;;;;;;;;;5133984;28;20419;-47
2023/08/03 00:23:57;;;;;;;0.10;0.10;;;;;;;;;;5134167;28;20530;-47
2023/08/03 00:26:23;;;;;;;0.10;0.10;;;;;;;;;;5134125;28;20407;-47
2023/08/03 00:28:48;;;;;;;0.10;0.10;;;;;;;;;;5119955;27;20046;-47
2023/08/03 00:31:14;;;;;;;0.10;0.10;;;;;;;;;;5129790;28;20078;-47
2023/08/03 00:33:40;;;;;;;0.63;0.17;;;;;;;;;;5133103;28;20120;-47
2023/08/03 00:36:05;;;;;;;0.10;0.10;;;;;;;;;;5133556;28;20043;-47
2023/08/03 00:38:31;;;;;;;0.10;0.10;;;;;;;;;;5134117;28;20051;-47
2023/08/03 00:40:56;;;;;;;0.10;0.10;;;;;;;;;;5132322;28;20205;-47
2023/08/03 00:43:22;;;;;;;0.10;0.10;;;;;;;;;;5133368;28;20039;-47
2023/08/03 00:45:48;;;;;;;0.10;0.10;;;;;;;;;;5133322;28;20055;-47
2023/08/03 00:48:13;;;;;;;0.10;0.10;;;;;;;;;;5133294;27;20122;-47
2023/08/03 00:50:39;;;;;;;0.10;0.10;;;;;;;;;;5125693;28;20075;-48
2023/08/03 00:53:04;;;;;;;0.10;0.10;;;;;;;;;;5111950;28;20047;-47
2023/08/03 00:55:31;;;;;;;0.10;0.10;;;;;;;;;;5112469;28;20070;-48
2023/08/03 00:57:56;;;;;;;0.10;0.10;;;;;;;;;;5112976;28;20051;-47
2023/08/03 01:00:22;;;;;;;0.10;0.10;;;;;;;;;;5116993;28;20082;-47
2023/08/03 01:02:47;;;;;;;0.10;0.10;;;;;;;;;;5132955;28;20057;-47
2023/08/03 01:05:13;;;;;;;0.13;0.13;;;;;;;;;;5133750;28;20075;-47
2023/08/03 01:07:39;;;;;;;0.10;0.10;;;;;;;;;;5132222;28;20439;-47
2023/08/03 01:10:04;;;;;;;0.10;0.10;;;;;;;;;;5130061;28;20058;-47
2023/08/03 01:12:30;;;;;;;0.10;0.10;;;;;;;;;;5127513;28;20051;-47
2023/08/03 01:14:56;;;;;;;0.10;0.10;;;;;;;;;;5132814;28;20085;-45
2023/08/03 01:17:21;;;;;;;0.10;0.10;;;;;;;;;;5132912;27;20085;-47
2023/08/03 01:19:47;;;;;;;0.10;0.10;;;;;;;;;;5131916;28;20452;-48
2023/08/03 01:22:13;;;;;;;0.10;0.10;;;;;;;;;;5132478;28;20051;-47
2023/08/03 01:24:38;;;;;;;0.20;0.20;;;;;;;;;;5132343;28;20440;-47
2023/08/03 01:27:05;;;;;;;0.10;0.10;;;;;;;;;;5132774;28;20571;-47
2023/08/03 01:29:30;;;;;;;0.20;0.20;;;;;;;;;;5129047;27;20423;-47
2023/08/03 01:31:56;;;;;;;0.20;0.20;;;;;;;;;;5132098;28;20777;-47
2023/08/03 01:34:23;;;;;;;0.20;0.20;;;;;;;;;;5132314;28;20051;-47
2023/08/03 01:36:48;;;;;;;0.10;0.10;;;;;;;;;;5133161;27;20079;-47
2023/08/03 01:39:14;;;;;;;0.20;0.20;;;;;;;;;;5132800;28;20047;-47
2023/08/03 01:41:41;;;;;;;0.20;0.20;;;;;;;;;;5131602;28;20445;-47
2023/08/03 01:44:26;;;;;;;0.10;0.10;;;;;;;;;;5132712;28;20624;-45
2023/08/03 01:46:53;;;;;;;0.10;0.10;;;;;;;;;;5111022;28;20047;-47
2023/08/03 01:49:18;;;;;;;0.10;0.10;;;;;;;;;;5112407;28;20048;-47
2023/08/03 01:51:44;;;;;;;0.20;0.20;;;;;;;;;;5128877;28;20054;-47
2023/08/03 01:54:11;;;;;;;0.10;0.10;;;;;;;;;;5132625;28;20055;-47
2023/08/03 01:56:36;;;;;;;0.10;0.10;;;;;;;;;;5131672;28;20043;-47
2023/08/03 01:59:02;;;;;;;0.20;0.20;;;;;;;;;;5132177;28;20104;-47
2023/08/03 02:01:28;;;;;;;0.10;0.10;;;;;;;;;;5131678;28;20074;-47
2023/08/03 02:03:53;;;;;;;0.20;0.20;;;;;;;;;;5131603;28;20130;-47
2023/08/03 02:06:19;;;;;;;0.20;0.20;;;;;;;;;;5132669;28;20192;-47
2023/08/03 02:08:44;;;;;;;0.20;0.20;;;;;;;;;;5131246;28;20047;-47
2023/08/03 02:11:10;;;;;;;0.15;0.15;;;;;;;;;;5119954;28;20051;-47
2023/08/03 02:13:35;;;;;;;0.13;0.13;;;;;;;;;;5119718;28;20055;-47
2023/08/03 02:16:01;;;;;;;0.20;0.20;;;;;;;;;;5131668;28;20400;-47
2023/08/03 02:18:44;;;;;;;0.20;0.20;;;;;;;;;;5131282;28;20094;-47
2023/08/03 02:21:10;;;;;;;0.10;0.10;;;;;;;;;;5130380;28;20039;-47
2023/08/03 02:23:35;;;;;;;0.10;0.10;;;;;;;;;;5131857;28;20415;-47
2023/08/03 02:26:02;;;;;;;0.17;0.17;;;;;;;;;;5131720;27;20480;-47
2023/08/03 02:28:29;;;;;;;0.10;0.10;;;;;;;;;;5130673;27;20047;-47
2023/08/03 02:30:54;;;;;;;0.10;0.10;;;;;;;;;;5130579;27;20059;-47
2023/08/03 02:33:20;;;;;;;0.10;0.10;;;;;;;;;;5137120;27;20449;-47
2023/08/03 02:35:46;;;;;;;0.10;0.10;;;;;;;;;;5130931;28;20059;-47
2023/08/03 02:38:11;;;;;;;0.10;0.10;;;;;;;;;;5131055;28;20449;-46
2023/08/03 02:40:37;;;;;;;0.10;0.10;;;;;;;;;;5130053;28;20051;-47
2023/08/03 02:43:02;;;;;;;0.10;0.10;;;;;;;;;;5130789;28;20051;-47
2023/08/03 02:45:28;;;;;;;0.10;0.10;;;;;;;;;;5131264;28;20055;-62
2023/08/03 02:47:55;;;;;;;0.10;0.10;;;;;;;;;;5130748;28;20043;-61
2023/08/03 02:50:21;;;;;;;0.20;0.20;;;;;;;;;;5131263;28;20104;-61
2023/08/03 02:52:46;;;;;;;0.20;0.20;;;;;;;;;;5131392;28;20138;-61
2023/08/03 02:55:12;;;;;;;0.10;0.10;;;;;;;;;;5131541;28;20047;-62
2023/08/03 02:57:37;;;;;;;0.10;0.10;;;;;;;;;;5131711;28;20475;-61
2023/08/03 03:00:04;;;;;;;0.20;0.20;;;;;;;;;;5131208;28;20105;-61
2023/08/03 03:02:29;;;;;;;0.10;0.10;;;;;;;;;;5130926;28;20043;-61
2023/08/03 03:04:55;;;;;;;0.10;0.10;;;;;;;;;;5131014;28;20070;-62
2023/08/03 03:07:21;;;;;;;0.10;0.10;;;;;;;;;;5131948;28;20054;-61
2023/08/03 03:09:46;;;;;;;0.10;0.10;;;;;;;;;;5130444;28;20388;-61
2023/08/03 03:12:12;;;;;;;0.10;0.10;;;;;;;;;;5130569;28;20067;-61
2023/08/03 03:14:37;;;;;;;0.20;0.20;;;;;;;;;;5131224;28;20051;-61
2023/08/03 03:17:03;;;;;;;0.10;0.10;;;;;;;;;;5131217;28;20116;-61
2023/08/03 03:19:29;;;;;;;0.20;0.20;;;;;;;;;;5130904;27;20056;-61
2023/08/03 03:21:55;;;;;;;0.10;0.10;;;;;;;;;;5117845;28;20546;-61
2023/08/03 03:24:20;;;;;;;0.10;0.10;;;;;;;;;;5131494;28;20091;-61
2023/08/03 03:26:46;;;;;;;0.20;0.20;;;;;;;;;;5127310;27;20050;-61
2023/08/03 03:29:11;;;;;;;0.10;0.10;;;;;;;;;;5110915;28;20461;-60
2023/08/03 03:31:37;;;;;;;0.10;0.10;;;;;;;;;;5126398;28;20475;-62
2023/08/03 03:34:03;;;;;;;0.10;0.10;;;;;;;;;;5130547;28;20130;-61
2023/08/03 03:36:28;;;;;;;0.10;0.10;;;;;;;;;;5130735;28;20043;-61
2023/08/03 03:38:54;;;;;;;0.10;0.10;;;;;;;;;;5129972;28;20079;-61
2023/08/03 03:41:19;;;;;;;0.15;0.15;;;;;;;;;;5131088;27;20492;-60
2023/08/03 03:43:45;;;;;;;0.10;0.10;;;;;;;;;;5134294;28;20487;-61
2023/08/03 03:46:10;;;;;;;0.10;0.10;;;;;;;;;;5133270;28;20043;-61
2023/08/03 03:48:36;;;;;;;0.20;0.20;;;;;;;;;;5133440;28;20482;-61
2023/08/03 03:51:02;;;;;;;0.10;0.10;;;;;;;;;;5133949;28;20051;-61
2023/08/03 03:53:27;;;;;;;0.10;0.10;;;;;;;;;;5133732;28;20053;-61
2023/08/03 03:55:53;;;;;;;0.10;0.10;;;;;;;;;;5134288;28;20066;-61
2023/08/03 03:58:18;;;;;;;0.10;0.10;;;;;;;;;;5133921;28;20047;-61
2023/08/03 04:00:44;;;;;;;0.10;0.10;;;;;;;;;;5133574;28;20043;-62
2023/08/03 04:03:10;;;;;;;0.10;0.10;;;;;;;;;;5133869;28;20103;-62
2023/08/03 04:05:36;;;;;;;0.10;0.10;;;;;;;;;;5133587;28;20047;-61
2023/08/03 04:08:02;;;;;;;0.10;0.10;;;;;;;;;;5132638;28;20423;-61
2023/08/03 04:10:28;;;;;;;0.10;0.10;;;;;;;;;;5126515;27;20051;-58
2023/08/03 04:12:53;;;;;;;0.10;0.10;;;;;;;;;;5131467;28;20047;-61
2023/08/03 04:15:19;;;;;;;0.10;0.10;;;;;;;;;;5133396;28;20051;-61
2023/08/03 04:17:45;;;;;;;0.10;0.10;;;;;;;;;;5132703;28;20047;-61
2023/08/03 04:20:11;;;;;;;0.20;0.20;;;;;;;;;;5133202;28;20086;-61
2023/08/03 04:22:37;;;;;;;0.10;0.10;;;;;;;;;;5133368;28;20099;-62
2023/08/03 04:25:03;;;;;;;0.20;0.20;;;;;;;;;;5134122;28;20050;-61
2023/08/03 04:27:29;;;;;;;0.20;0.20;;;;;;;;;;5135657;27;20047;-61
2023/08/03 04:29:54;;;;;;;0.10;0.10;;;;;;;;;;5151830;27;20062;-61
2023/08/03 04:32:20;;;;;;;0.10;0.10;;;;;;;;;;5113801;28;20047;-61
2023/08/03 04:34:45;;;;;;;0.10;0.10;;;;;;;;;;5129004;28;20051;-61
2023/08/03 04:37:11;;;;;;;0.20;0.20;;;;;;;;;;5133825;28;20051;-62
2023/08/03 04:39:36;;;;;;;0.20;0.20;;;;;;;;;;5132729;28;20391;-61
2023/08/03 04:42:02;;;;;;;0.10;0.10;;;;;;;;;;5113896;28;20484;-60
2023/08/03 04:44:27;;;;;;;0.20;0.20;;;;;;;;;;5113531;28;20071;-62
2023/08/03 04:46:53;;;;;;;0.10;0.10;;;;;;;;;;5121046;28;20655;-61
2023/08/03 04:49:19;;;;;;;0.10;0.10;;;;;;;;;;5133126;28;20515;-61
2023/08/03 04:51:44;;;;;;;0.10;0.10;;;;;;;;;;5124091;27;20071;-61
2023/08/03 04:54:13;;;;;;;0.10;0.10;;;;;;;;;;5119874;28;20039;-61
2023/08/03 04:56:39;;;;;;;0.25;0.17;;;;;;;;;;5132146;28;20055;-61
2023/08/03 04:59:04;;;;;;;0.10;0.10;;;;;;;;;;5128602;28;20067;-61
2023/08/03 05:01:30;;;;;;;0.20;0.20;;;;;;;;;;5127360;28;20051;-61
2023/08/03 05:03:56;;;;;;;0.10;0.10;;;;;;;;;;5132611;28;20050;-61
2023/08/03 05:06:21;;;;;;;0.10;0.10;;;;;;;;;;5117750;27;20055;-61
2023/08/03 05:08:47;;;;;;;0.10;0.10;;;;;;;;;;5130106;27;20047;-60
2023/08/03 05:11:12;;;;;;;0.20;0.20;;;;;;;;;;5130834;28;20039;-61
2023/08/03 05:13:38;;;;;;;0.20;0.20;;;;;;;;;;5129744;28;20695;-60
2023/08/03 05:16:03;;;;;;;0.10;0.10;;;;;;;;;;5126502;27;20131;-61
2023/08/03 05:18:29;;;;;;;0.20;0.20;;;;;;;;;;5125979;27;20305;-61
2023/08/03 05:20:54;;;;;;;0.10;0.10;;;;;;;;;;5125185;27;20111;-61
2023/08/03 05:23:20;;;;;;;0.10;0.10;;;;;;;;;;5125306;28;20039;-59
2023/08/03 05:25:48;;;;;;;0.10;0.10;;;;;;;;;;5128601;27;20051;-61
2023/08/03 05:28:13;;;;;;;0.10;0.10;;;;;;;;;;5127259;27;20588;-61
2023/08/03 05:30:39;;;;;;;0.10;0.10;;;;;;;;;;5126425;28;20488;-61
2023/08/03 05:33:04;;;;;;;0.10;0.10;;;;;;;;;;5126659;28;20050;-61
2023/08/03 05:35:30;;;;;;;0.20;0.20;;;;;;;;;;5117757;28;20046;-61
2023/08/03 05:37:56;;;;;;;0.10;0.10;;;;;;;;;;5121158;27;20043;-62
2023/08/03 05:40:21;;;;;;;0.10;0.10;;;;;;;;;;5126588;28;20465;-62
2023/08/03 05:42:47;;;;;;;0.10;0.10;;;;;;;;;;5119577;27;20062;-60
2023/08/03 05:45:32;;;;;;;0.10;0.10;;;;;;;;;;5122396;27;20471;-57
2023/08/03 05:47:58;;;;;;;0.10;0.10;;;;;;;;;;5119206;27;20051;-60
2023/08/03 05:50:24;;;;;;;0.10;0.10;;;;;;;;;;5098555;28;20490;-59
2023/08/03 05:52:50;;;;;;;0.20;0.20;;;;;;;;;;5119373;28;20125;-60
2023/08/03 05:55:16;;;;;;;0.10;0.10;;;;;;;;;;5110689;28;20081;-60
2023/08/03 05:57:42;;;;;;;0.10;0.10;;;;;;;;;;5109754;27;20681;-59
2023/08/03 06:00:12;;;;;;;0.10;0.10;;;;;;;;;;5110967;27;20051;-61
2023/08/03 06:02:38;;;;;;;0.10;0.10;;;;;;;;;;5107816;27;20047;-60
2023/08/03 06:05:06;;;;;;;0.10;0.10;;;;;;;;;;5108173;28;20043;-60
2023/08/03 06:07:31;;;;;;;0.20;0.20;;;;;;;;;;5118808;27;20227;-59
2023/08/03 06:09:57;;;;;;;0.10;0.10;;;;;;;;;;5118390;28;20371;-60
2023/08/03 06:12:22;;;;;;;0.10;0.10;;;;;;;;;;5114994;27;20089;-60
2023/08/03 06:14:48;;;;;;;0.10;0.10;;;;;;;;;;5119932;27;20051;-60
2023/08/03 06:17:14;;;;;;;0.10;0.10;;;;;;;;;;5120078;27;20130;-60
2023/08/03 06:19:40;;;;;;;0.10;0.10;;;;;;;;;;5117642;27;20626;-60
2023/08/03 06:22:17;;;;;;;0.10;0.10;;;;;;;;;;5119268;27;20039;-60
2023/08/03 06:24:42;;;;;;;0.10;0.10;;;;;;;;;;5116767;27;20325;-60
2023/08/03 06:27:10;;;;;;;0.20;0.20;;;;;;;;;;5123659;27;20058;-61
2023/08/03 06:29:36;;;;;;;;;;;;;;;;;;5119226;28;20043;-60
2023/08/03 06:32:02;;;;;;;0.10;0.10;;;;;;;;;;5121499;27;20017;-60
2023/08/03 06:34:27;;;;;;;0.13;0.13;;;;;;;;;;5124983;27;20051;-60
2023/08/03 06:36:53;;;;;;;0.10;0.10;;;;;;;;;;5115552;27;20044;-59
2023/08/03 06:39:18;;;;;;;0.20;0.20;;;;;;;;;;5123093;27;20491;-60
2023/08/03 06:41:44;;;;;;;0.10;0.10;;;;;;;;;;5118595;28;20067;-61
2023/08/03 06:44:10;;;;;;;0.10;0.10;;;;;;;;;;5110306;28;20421;-60
2023/08/03 06:46:36;;;;;;;0.10;0.10;;;;;;;;;;5118815;27;20043;-59
2023/08/03 06:49:02;;;;;;;0.10;0.10;;;;;;;;;;5115639;27;20043;-60
2023/08/03 06:51:27;;;;;;;0.17;0.17;;;;;;;;;;5120388;27;20047;-60
2023/08/03 06:53:53;;;;;;;0.10;0.10;;;;;;;;;;5117066;27;20050;-61
2023/08/03 06:56:18;;;;;;;0.10;0.10;;;;;;;;;;5113041;28;20047;-60
2023/08/03 06:58:44;;;;;;;0.20;0.20;;;;;;;;;;5112879;28;20035;-60
2023/08/03 07:01:09;;;;;;;0.10;0.10;;;;;;;;;;5111257;27;20077;-60
2023/08/03 07:03:35;;;;;;;0.10;0.10;;;;;;;;;;5112850;27;20437;-47
2023/08/03 07:06:03;;;;;;;0.10;0.10;;;;;;;;;;5118802;27;20051;-47
2023/08/03 07:08:28;;;;;;;0.10;0.10;;;;;;;;;;5114320;27;20051;-51
2023/08/03 07:10:54;;;;;;;0.13;0.13;;;;;;;;;;5115805;27;20653;-47
2023/08/03 07:13:19;;;;;;;0.10;0.10;;;;;;;;;;5119821;27;20404;-47
2023/08/03 07:15:45;;;;;;;0.10;0.10;;;;;;;;;;5122992;27;20492;-50
2023/08/03 07:18:11;;;;;;;0.10;0.10;;;;;;;;;;5123367;27;20050;-51
2023/08/03 07:20:37;;;;;;;0.10;0.10;;;;;;;;;;5123187;27;20111;-48
2023/08/03 07:23:03;;;;;;;0.20;0.20;;;;;;;;;;5118986;27;20483;-49
2023/08/03 07:25:31;;;;;;;0.20;0.20;;;;;;;;;;5125990;27;20044;-51
2023/08/03 07:27:56;;;;;;;0.20;0.20;;;;;;;;;;5120761;27;20047;-49
2023/08/03 07:30:22;;;;;;;0.20;0.20;;;;;;;;;;5119514;27;20187;-51
2023/08/03 07:32:48;;;;;;;0.10;0.10;;;;;;;;;;5120930;27;20145;-49
2023/08/03 07:35:13;;;;;;;0.20;0.20;;;;;;;;;;5121876;27;20103;-51
2023/08/03 07:37:39;;;;;;;0.15;0.15;;;;;;;;;;5122965;27;20054;-50
2023/08/03 07:40:05;;;;;;;0.13;0.13;;;;;;;;;;5123581;27;20106;-52
2023/08/03 07:42:30;;;;;;;0.20;0.20;;;;;;;;;;5123211;27;20539;-52
2023/08/03 07:44:56;;;;;;;0.10;0.10;;;;;;;;;;5117060;27;20138;-50
2023/08/03 07:47:21;;;;;;;0.10;0.10;;;;;;;;;;5119209;27;20048;-52
2023/08/03 07:49:47;;;;;;;0.10;0.10;;;;;;;;;;5114880;27;20095;-53
2023/08/03 07:52:13;;;;;;;0.20;0.20;;;;;;;;;;5114986;27;20043;-53
2023/08/03 07:54:38;;;;;;;0.10;0.10;;;;;;;;;;5124011;27;20091;-50
2023/08/03 07:57:04;;;;;;;0.80;0.20;;;;;;;;;;5117241;27;20175;-53
2023/08/03 07:59:29;;;;;;;0.10;0.10;;;;;;;;;;5119897;28;20407;-55
2023/08/03 08:01:55;;;;;;;0.10;0.10;;;;;;;;;;5118520;27;20048;-55
2023/08/03 08:04:21;;;;;;;0.20;0.20;;;;;;;;;;5112058;27;20039;-56
2023/08/03 08:06:46;;;;;;;0.10;0.10;;;;;;;;;;5112595;27;20431;-55
2023/08/03 08:09:12;;;;;;;0.10;0.10;;;;;;;;;;5109279;27;20043;-52
2023/08/03 08:11:37;;;;;;;0.10;0.10;;;;;;;;;;5113969;27;20047;-55
2023/08/03 08:14:03;;;;;;;0.10;0.10;;;;;;;;;;5118635;28;20043;-54
2023/08/03 08:16:29;;;;;;;0.10;0.10;;;;;;;;;;5118187;28;20451;-56
2023/08/03 08:18:55;;;;;;;0.10;0.10;;;;;;;;;;5118550;27;20051;-55
2023/08/03 08:21:20;;;;;;;0.15;0.15;;;;;;;;;;5119041;27;20043;-51
2023/08/03 08:23:46;;;;;;;0.20;0.20;;;;;;;;;;5115409;27;20074;-50
2023/08/03 08:26:12;;;;;;;0.10;0.10;;;;;;;;;;5127114;27;20747;-47
2023/08/03 08:28:39;;;;;;;0.10;0.10;;;;;;;;;;5124295;28;20035;-51
2023/08/03 08:31:06;;;;;;;0.10;0.10;;;;;;;;;;5122427;27;20076;-50
2023/08/03 08:33:32;;;;;;;0.10;0.10;;;;;;;;;;5123468;27;20583;-46
2023/08/03 08:35:58;;;;;;;0.20;0.20;;;;;;;;;;5134188;27;20065;-50
2023/08/03 08:38:23;;;;;;;0.20;0.20;;;;;;;;;;5120029;28;20042;-49
2023/08/03 08:40:49;;;;;;;0.10;0.10;;;;;;;;;;5122501;27;20106;-48
2023/08/03 08:43:17;;;;;;;0.10;0.10;;;;;;;;;;5116319;28;20043;-48
2023/08/03 08:45:42;;;;;;;0.10;0.10;;;;;;;;;;5122805;28;20051;-47
2023/08/03 08:48:08;;;;;;;0.10;0.10;;;;;;;;;;5123053;27;20049;-51
2023/08/03 08:50:38;;;;;;;0.10;0.10;;;;;;;;;;5117998;27;20047;-51
2023/08/03 08:53:23;;;;;;;0.20;0.20;;;;;;;;;;5102871;28;20460;-56
2023/08/03 08:55:50;;;;;;;0.10;0.10;;;;;;;;;;5123339;28;20043;-46
2023/08/03 08:58:19;;;;;;;0.10;0.10;;;;;;;;;;5121390;27;20047;-49
2023/08/03 09:00:45;;;;;;;0.20;0.20;;;;;;;;;;5115888;28;20127;-48
2023/08/03 09:03:12;;;;;;;0.20;0.20;;;;;;;;;;5117877;27;20655;-47
2023/08/03 09:05:39;;;;;;;0.10;0.10;;;;;;;;;;5109323;27;20059;-50
2023/08/03 09:08:09;;;;;;;0.20;0.20;;;;;;;;;;5117349;28;20058;-47
2023/08/03 09:10:46;;;;;;;0.10;0.10;;;;;;;;;;5116005;27;20057;-47
2023/08/03 09:13:24;;;;;;;0.15;0.15;;;;;;;;;;5125013;28;20047;-48
2023/08/03 09:15:50;;;;;;;0.10;0.10;;;;;;;;;;5111123;27;20081;-47
2023/08/03 09:18:15;;;;;;;0.20;0.20;;;;;;;;;;5116200;27;20084;-46
2023/08/03 09:20:41;;;;;;;0.10;0.10;;;;;;;;;;5122085;27;20047;-50
2023/08/03 09:23:25;;;;;;;0.10;0.10;;;;;;;;;;5123802;28;20047;-49
2023/08/03 09:25:52;;;;;;;0.20;0.20;;;;;;;;;;5115030;27;20039;-56
2023/08/03 09:28:18;;;;;;;0.20;0.20;;;;;;;;;;5110246;27;21012;-45
2023/08/03 09:30:47;;;;;;;0.10;0.10;;;;;;;;;;5113273;28;20717;-49
2023/08/03 09:33:27;;;;;;;0.10;0.10;;;;;;;;;;5115033;27;20618;-50
2023/08/03 09:36:04;;;;;;;0.10;0.10;;;;;;;;;;5118338;27;20043;-49
2023/08/03 09:38:29;;;;;;;0.20;0.20;;;;;;;;;;5117947;27;20058;-49
2023/08/03 09:40:55;;;;;;;0.10;0.10;;;;;;;;;;5121804;27;20043;-50
2023/08/03 09:43:23;;;;;;;0.10;0.10;;;;;;;;;;5120637;28;20073;-51
2023/08/03 09:45:53;;;;;;;0.10;0.10;;;;;;;;;;5121120;27;20074;-49
2023/08/03 09:48:18;;;;;;;0.10;0.10;;;;;;;;;;5122701;28;20042;-52
2023/08/03 09:50:49;;;;;;;0.10;0.10;;;;;;;;;;5123080;27;20058;-51
2023/08/03 09:53:16;;;;;;;0.20;0.20;;;;;;;;;;5116544;28;20039;-51
2023/08/03 09:55:45;;;;;;;0.10;0.10;;;;;;;;;;5114182;27;20058;-49
2023/08/03 09:58:13;;;;;;;0.10;0.10;;;;;;;;;;5108603;27;20311;-49
2023/08/03 10:00:40;;;;;;;0.10;0.10;;;;;;;;;;5106440;27;20057;-51
2023/08/03 10:03:09;;;;;;;0.10;0.10;;;;;;;;;;5116980;27;20050;-46
2023/08/03 10:05:38;;;;;;;0.10;0.10;;;;;;;;;;5112888;28;20055;-51
2023/08/03 10:08:06;;;;;;;0.20;0.20;;;;;;;;;;5116452;28;20622;-49
2023/08/03 10:10:35;;;;;;;0.10;0.10;;;;;;;;;;5109599;27;20514;-51
2023/08/03 10:13:02;;;;;;;0.10;0.10;;;;;;;;;;5118444;28;20043;-50
2023/08/03 10:15:27;;;;;;;0.10;0.10;;;;;;;;;;5116022;28;20051;-49
2023/08/03 10:17:54;;;;;;;0.20;0.20;;;;;;;;;;5115358;28;20503;-51
2023/08/03 10:20:20;;;;;;;0.20;0.20;;;;;;;;;;5115979;28;20055;-51
2023/08/03 10:23:06;;;;;;;0.20;0.20;;;;;;;;;;5118024;28;20049;-46
2023/08/03 10:25:31;;;;;;;0.10;0.10;;;;;;;;;;5104326;27;20051;-52
2023/08/03 10:28:13;;;;;;;0.10;0.10;;;;;;;;;;5122084;27;20039;-50
2023/08/03 10:30:58;;;;;;;0.20;0.20;;;;;;;;;;5116463;28;20043;-50
2023/08/03 10:33:44;;;;;;;0.17;0.17;;;;;;;;;;5106449;28;20047;-46
2023/08/03 10:36:09;;;;;;;0.10;0.10;;;;;;;;;;5108146;28;20069;-49
2023/08/03 10:38:41;;;;;;;0.20;0.20;;;;;;;;;;5117636;27;20056;-48
2023/08/03 10:41:23;;;;;;;0.10;0.10;;;;;;;;;;5117083;27;20697;-50
2023/08/03 10:44:10;;;;;;;0.20;0.20;;;;;;;;;;5113104;27;20461;-51
2023/08/03 10:46:38;;;;;;;0.10;0.10;;;;;;;;;;5099718;28;20039;-49
2023/08/03 10:52:16;;;;;;;0.10;0.10;;;;;;;;;;5158434;27;20255;-50
2023/08/03 10:54:41;;;;;;;0.10;0.10;;;;;;;;;;5112840;27;20076;-50
2023/08/03 10:57:08;;;;;;;0.15;0.15;;;;;;;;;;5137852;27;20534;-52
2023/08/03 10:59:35;;;;;;;0.10;0.10;;;;;;;;;;5138893;27;20077;-53
2023/08/03 11:02:07;;;;;;;0.10;0.10;;;;;;;;;;5131423;27;20050;-50
2023/08/03 11:04:34;;;;;;;0.17;0.17;;;;;;;;;;5127738;27;20073;-51
2023/08/03 11:07:00;;;;;;;0.10;0.10;;;;;;;;;;5115568;27;20043;-53
2023/08/03 11:09:25;;;;;;;0.10;0.10;;;;;;;;;;5131429;27;20039;-51
2023/08/03 11:11:54;;;;;;;0.10;0.10;;;;;;;;;;5126617;27;20269;-52
2023/08/03 11:14:20;;;;;;;0.10;0.10;;;;;;;;;;5126016;27;20046;-51
2023/08/03 11:16:46;;;;;;;0.10;0.10;;;;;;;;;;5129625;27;20442;-50
2023/08/03 11:19:13;;;;;;;0.15;0.15;;;;;;;;;;5139387;27;20046;-47
2023/08/03 11:21:40;;;;;;;0.10;0.10;;;;;;;;;;5139431;27;20038;-52
2023/08/03 11:24:06;;;;;;;0.10;0.10;;;;;;;;;;5140677;27;20046;-50
2023/08/03 11:26:31;;;;;;;0.13;0.13;;;;;;;;;;5133382;27;20042;-51
2023/08/03 11:28:57;;;;;;;0.10;0.10;;;;;;;;;;5132035;27;20061;-51
2023/08/03 11:31:23;;;;;;;0.10;0.10;;;;;;;;;;5140101;27;20085;-51
2023/08/03 11:36:24;;;;;;;0.10;0.10;;;;;;;;;;5174270;27;20804;-48
2023/08/03 11:38:50;;;;;;;0.10;0.10;;;;;;;;;;5163706;27;20054;-51
2023/08/03 11:41:17;;;;;;;0.10;0.10;;;;;;;;;;5156458;27;20091;-52
2023/08/03 11:43:57;;;;;;;0.20;0.20;;;;;;;;;;5148549;27;20488;-51
2023/08/03 11:46:26;;;;;;;0.10;0.10;;;;;;;;;;5157639;27;20138;-51
2023/08/03 11:48:55;;;;;;;0.10;0.10;;;;;;;;;;5163314;27;20046;-51
2023/08/03 11:51:29;;;;;;;0.10;0.10;;;;;;;;;;5159364;27;20042;-49
2023/08/03 11:53:54;;;;;;;0.20;0.20;;;;;;;;;;5162164;27;20049;-51
2023/08/03 11:56:20;;;;;;;0.20;0.20;;;;;;;;;;5147738;27;20051;-51
2023/08/03 11:58:53;;;;;;;0.10;0.10;;;;;;;;;;5154988;27;20145;-50
2023/08/03 12:01:23;;;;;;;0.20;0.20;;;;;;;;;;5147273;27;20069;-49
2023/08/03 12:03:49;;;;;;;0.20;0.20;;;;;;;;;;5136577;27;20130;-51
2023/08/03 12:06:14;;;;;;;0.10;0.10;;;;;;;;;;5132802;27;20392;-52
2023/08/03 12:09:00;;;;;;;0.10;0.10;;;;;;;;;;5121233;27;20069;-52
2023/08/03 12:11:28;;;;;;;0.13;0.13;;;;;;;;;;5134855;27;20426;-50
2023/08/03 12:13:56;;;;;;;0.10;0.10;;;;;;;;;;5129231;27;20133;-51
2023/08/03 12:16:21;;;;;;;0.10;0.10;;;;;;;;;;5139567;27;20054;-51
2023/08/03 12:18:47;;;;;;;0.10;0.10;;;;;;;;;;5140522;27;20068;-52
2023/08/03 12:21:16;;;;;;;0.10;0.10;;;;;;;;;;5139143;27;20100;-52
2023/08/03 12:23:41;;;;;;;0.13;0.13;;;;;;;;;;5135481;27;20645;-50
2023/08/03 12:26:07;;;;;;;0.10;0.10;;;;;;;;;;5139635;27;20043;-52
2023/08/03 12:28:33;;;;;;;0.20;0.20;;;;;;;;;;5140023;27;20112;-52
2023/08/03 12:30:58;;;;;;;0.10;0.10;;;;;;;;;;5148013;27;20536;-51
2023/08/03 12:33:24;;;;;;;0.10;0.10;;;;;;;;;;5139694;27;20180;-52
2023/08/03 12:35:50;;;;;;;0.20;0.20;;;;;;;;;;5135524;27;20038;-50
2023/08/03 12:38:15;;;;;;;0.10;0.10;;;;;;;;;;5133452;27;20146;-52
2023/08/03 12:40:41;;;;;;;0.20;0.20;;;;;;;;;;5139765;27;20571;-52
2023/08/03 12:43:06;;;;;;;0.10;0.10;;;;;;;;;;5142594;27;20103;-52
2023/08/03 12:45:32;;;;;;;0.10;0.10;;;;;;;;;;5139164;27;20058;-51
2023/08/03 12:48:00;;;;;;;0.10;0.10;;;;;;;;;;5126237;28;20051;-50
2023/08/03 12:50:26;;;;;;;0.10;0.10;;;;;;;;;;5108286;28;20108;-52
2023/08/03 12:52:53;;;;;;;0.10;0.10;;;;;;;;;;5128507;28;20047;-50
2023/08/03 12:55:18;;;;;;;0.10;0.10;;;;;;;;;;5128077;28;20096;-50
2023/08/03 12:57:44;;;;;;;0.10;0.10;;;;;;;;;;5129079;28;20048;-48
2023/08/03 13:00:10;;;;;;;0.10;0.10;;;;;;;;;;5129815;28;20134;-52
2023/08/03 13:02:35;;;;;;;0.10;0.10;;;;;;;;;;5130086;27;20425;-50
2023/08/03 13:05:07;;;;;;;0.10;0.10;;;;;;;;;;5128742;28;20166;-51
2023/08/03 13:07:33;;;;;;;0.13;0.13;;;;;;;;;;5130088;28;20054;-61
2023/08/03 13:09:58;;;;;;;0.10;0.10;;;;;;;;;;5129869;27;20035;-61
2023/08/03 13:12:24;;;;;;;0.10;0.10;;;;;;;;;;5130406;28;20047;-61
2023/08/03 13:14:52;;;;;;;;;;;;;;;;;;5129658;28;20149;-61
2023/08/03 13:17:17;;;;;;;0.10;0.10;;;;;;;;;;5129938;28;19962;-61
2023/08/03 13:19:43;;;;;;;0.10;0.10;;;;;;;;;;5128473;28;20039;-61
2023/08/03 13:22:09;;;;;;;0.10;0.10;;;;;;;;;;5130065;28;20277;-61
2023/08/03 13:24:34;;;;;;;0.20;0.20;;;;;;;;;;5126094;27;20466;-61
2023/08/03 13:27:16;;;;;;;0.10;0.10;;;;;;;;;;5125453;27;20043;-60
2023/08/03 13:29:46;;;;;;;0.10;0.10;;;;;;;;;;5129090;27;20534;-61
2023/08/03 13:32:12;;;;;;;0.10;0.10;;;;;;;;;;5129827;28;20062;-61
2023/08/03 13:34:38;;;;;;;0.20;0.20;;;;;;;;;;5126836;28;20047;-60
2023/08/03 13:37:04;;;;;;;0.10;0.10;;;;;;;;;;5129174;28;20128;-60
2023/08/03 13:39:30;;;;;;;0.10;0.10;;;;;;;;;;5129319;28;20047;-60
2023/08/03 13:41:55;;;;;;;0.13;0.13;;;;;;;;;;5129814;28;20070;-61
2023/08/03 13:44:21;;;;;;;0.15;0.15;;;;;;;;;;5129025;28;20047;-61
2023/08/03 13:46:46;;;;;;;0.10;0.10;;;;;;;;;;5126365;28;20415;-61
2023/08/03 13:49:12;;;;;;;0.10;0.10;;;;;;;;;;5129669;28;20051;-61
2023/08/03 13:51:38;;;;;;;0.20;0.20;;;;;;;;;;5128328;27;20505;-61
2023/08/03 13:54:04;;;;;;;0.10;0.10;;;;;;;;;;5128746;28;20135;-61
2023/08/03 13:56:29;;;;;;;0.10;0.10;;;;;;;;;;5128861;27;20134;-61
2023/08/03 13:58:58;;;;;;;0.10;0.10;;;;;;;;;;5128726;27;20053;-61
2023/08/03 14:01:24;;;;;;;0.10;0.10;;;;;;;;;;5127866;28;20047;-61
2023/08/03 14:04:02;;;;;;;0.10;0.10;;;;;;;;;;5127105;28;20050;-62
2023/08/03 14:06:28;;;;;;;0.10;0.10;;;;;;;;;;5129656;28;20471;-61
2023/08/03 14:08:54;;;;;;;0.10;0.10;;;;;;;;;;5130579;28;20138;-61
2023/08/03 14:11:24;;;;;;;0.10;0.10;;;;;;;;;;5129981;28;20538;-62
2023/08/03 14:13:49;;;;;;;0.10;0.10;;;;;;;;;;5129020;28;20058;-62
2023/08/03 14:16:18;;;;;;;0.10;0.10;;;;;;;;;;5129871;28;20062;-61
2023/08/03 14:18:47;;;;;;;0.20;0.20;;;;;;;;;;5129953;28;20047;-61
2023/08/03 14:21:13;;;;;;;0.20;0.20;;;;;;;;;;5129695;28;20047;-61
2023/08/03 14:23:59;;;;;;;0.20;0.20;;;;;;;;;;5109713;28;20054;-61
2023/08/03 14:26:28;;;;;;;0.10;0.10;;;;;;;;;;5129035;27;20092;-60
2023/08/03 14:28:54;;;;;;;0.10;0.10;;;;;;;;;;5129282;28;20051;-61
2023/08/03 14:31:22;;;;;;;0.10;0.10;;;;;;;;;;5127827;28;20051;-61
2023/08/03 14:33:48;;;;;;;0.10;0.10;;;;;;;;;;5129600;28;20082;-61
2023/08/03 14:36:14;;;;;;;0.10;0.10;;;;;;;;;;5128945;28;20047;-61
2023/08/03 14:38:41;;;;;;;0.15;0.15;;;;;;;;;;5129539;28;20427;-61
2023/08/03 14:41:17;;;;;;;0.10;0.10;;;;;;;;;;5128616;28;20491;-61
2023/08/03 14:43:43;;;;;;;0.10;0.10;;;;;;;;;;5128654;28;20055;-61
2023/08/03 14:46:11;;;;;;;0.20;0.20;;;;;;;;;;5129043;28;20043;-61
2023/08/03 14:48:37;;;;;;;0.20;0.20;;;;;;;;;;5129822;28;20050;-60